sensor_id;sensor_type;location;lat;lon;timestamp;P1;durP1;ratioP1;P2;durP2;ratioP2
31676;SDS011;18385;51.572;6.578;2022-12-08T00:01:12;10.52;;;4.93;;
31676;SDS011;18385;51.572;6.578;2022-12-08T00:03:40;18.50;;;5.72;;
31676;SDS011;18385;51.572;6.578;2022-12-08T00:06:06;11.60;;;5.45;;
31676;SDS011;18385;51.572;6.578;2022-12-08T00:08:58;9.18;;;5.03;;
31676;SDS011;18385;51.572;6.578;2022-12-08T00:11:43;7.95;;;4.60;;
31676;SDS011;18385;51.572;6.578;2022-12-08T00:14:09;8.75;;;5.03;;
31676;SDS011;18385;51.572;6.578;2022-12-08T00:16:34;8.60;;;4.88;;
31676;SDS011;18385;51.572;6.578;2022-12-08T00:19:00;10.07;;;4.47;;
31676;SDS011;18385;51.572;6.578;2022-12-08T00:21:26;14.43;;;5.60;;
31676;SDS011;18385;51.572;6.578;2022-12-08T00:23:56;12.32;;;4.60;;
31676;SDS011;18385;51.572;6.578;2022-12-08T00:26:22;9.70;;;4.83;;
31676;SDS011;18385;51.572;6.578;2022-12-08T00:28:48;8.15;;;4.32;;
31676;SDS011;18385;51.572;6.578;2022-12-08T00:31:13;9.05;;;4.80;;
31676;SDS011;18385;51.572;6.578;2022-12-08T00:33:39;8.40;;;3.97;;
31676;SDS011;18385;51.572;6.578;2022-12-08T00:36:08;10.50;;;4.82;;
31676;SDS011;18385;51.572;6.578;2022-12-08T00:38:36;7.07;;;4.15;;
31676;SDS011;18385;51.572;6.578;2022-12-08T00:41:02;10.10;;;4.10;;
31676;SDS011;18385;51.572;6.578;2022-12-08T00:43:31;15.80;;;5.43;;
31676;SDS011;18385;51.572;6.578;2022-12-08T00:45:56;9.38;;;4.18;;
31676;SDS011;18385;51.572;6.578;2022-12-08T00:48:22;7.03;;;4.03;;
31676;SDS011;18385;51.572;6.578;2022-12-08T00:50:48;8.05;;;4.00;;
31676;SDS011;18385;51.572;6.578;2022-12-08T00:53:13;9.80;;;4.80;;
31676;SDS011;18385;51.572;6.578;2022-12-08T00:55:39;9.50;;;6.18;;
31676;SDS011;18385;51.572;6.578;2022-12-08T00:58:04;13.73;;;6.70;;
31676;SDS011;18385;51.572;6.578;2022-12-08T01:00:30;13.35;;;7.32;;
31676;SDS011;18385;51.572;6.578;2022-12-08T01:02:56;12.88;;;7.57;;
31676;SDS011;18385;51.572;6.578;2022-12-08T01:05:21;17.98;;;8.30;;
31676;SDS011;18385;51.572;6.578;2022-12-08T01:07:47;17.15;;;8.20;;
31676;SDS011;18385;51.572;6.578;2022-12-08T01:10:13;14.07;;;7.90;;
31676;SDS011;18385;51.572;6.578;2022-12-08T01:12:39;15.48;;;8.80;;
31676;SDS011;18385;51.572;6.578;2022-12-08T01:15:05;15.90;;;8.88;;
31676;SDS011;18385;51.572;6.578;2022-12-08T01:17:31;16.92;;;8.75;;
31676;SDS011;18385;51.572;6.578;2022-12-08T01:19:57;20.15;;;9.35;;
31676;SDS011;18385;51.572;6.578;2022-12-08T01:22:23;17.33;;;9.23;;
31676;SDS011;18385;51.572;6.578;2022-12-08T01:24:49;15.70;;;9.18;;
31676;SDS011;18385;51.572;6.578;2022-12-08T01:27:14;16.73;;;9.18;;
31676;SDS011;18385;51.572;6.578;2022-12-08T01:29:40;17.27;;;9.52;;
31676;SDS011;18385;51.572;6.578;2022-12-08T01:32:06;18.33;;;9.98;;
31676;SDS011;18385;51.572;6.578;2022-12-08T01:34:33;18.17;;;9.52;;
31676;SDS011;18385;51.572;6.578;2022-12-08T01:36:59;20.35;;;9.52;;
31676;SDS011;18385;51.572;6.578;2022-12-08T01:39:25;21.90;;;11.15;;
31676;SDS011;18385;51.572;6.578;2022-12-08T01:41:51;20.35;;;10.20;;
31676;SDS011;18385;51.572;6.578;2022-12-08T01:46:43;21.35;;;11.10;;
31676;SDS011;18385;51.572;6.578;2022-12-08T01:49:10;22.30;;;11.00;;
31676;SDS011;18385;51.572;6.578;2022-12-08T01:51:49;26.25;;;11.13;;
31676;SDS011;18385;51.572;6.578;2022-12-08T01:54:23;22.77;;;12.50;;
31676;SDS011;18385;51.572;6.578;2022-12-08T01:59:18;27.08;;;12.35;;
31676;SDS011;18385;51.572;6.578;2022-12-08T02:01:48;27.30;;;12.40;;
31676;SDS011;18385;51.572;6.578;2022-12-08T02:04:15;25.45;;;11.38;;
31676;SDS011;18385;51.572;6.578;2022-12-08T02:06:40;29.63;;;13.38;;
31676;SDS011;18385;51.572;6.578;2022-12-08T02:09:09;28.40;;;13.10;;
31676;SDS011;18385;51.572;6.578;2022-12-08T02:11:35;26.35;;;12.68;;
31676;SDS011;18385;51.572;6.578;2022-12-08T02:14:03;28.50;;;13.40;;
31676;SDS011;18385;51.572;6.578;2022-12-08T02:22:11;28.02;;;13.63;;
31676;SDS011;18385;51.572;6.578;2022-12-08T02:30:31;25.08;;;11.82;;
31676;SDS011;18385;51.572;6.578;2022-12-08T02:38:55;31.58;;;14.45;;
31676;SDS011;18385;51.572;6.578;2022-12-08T02:41:50;26.95;;;13.15;;
31676;SDS011;18385;51.572;6.578;2022-12-08T02:44:26;29.58;;;13.60;;
31676;SDS011;18385;51.572;6.578;2022-12-08T02:46:59;29.73;;;14.48;;
31676;SDS011;18385;51.572;6.578;2022-12-08T02:49:33;28.48;;;13.23;;
31676;SDS011;18385;51.572;6.578;2022-12-08T02:55:02;29.70;;;13.45;;
31676;SDS011;18385;51.572;6.578;2022-12-08T02:57:45;29.45;;;13.35;;
31676;SDS011;18385;51.572;6.578;2022-12-08T03:00:15;29.05;;;12.73;;
31676;SDS011;18385;51.572;6.578;2022-12-08T03:02:50;31.45;;;13.80;;
31676;SDS011;18385;51.572;6.578;2022-12-08T03:08:11;26.83;;;12.25;;
31676;SDS011;18385;51.572;6.578;2022-12-08T03:10:46;35.22;;;14.15;;
31676;SDS011;18385;51.572;6.578;2022-12-08T03:13:25;28.65;;;13.02;;
31676;SDS011;18385;51.572;6.578;2022-12-08T03:15:57;27.10;;;12.68;;
31676;SDS011;18385;51.572;6.578;2022-12-08T03:18:26;28.00;;;12.60;;
31676;SDS011;18385;51.572;6.578;2022-12-08T03:20:55;27.83;;;12.40;;
31676;SDS011;18385;51.572;6.578;2022-12-08T03:23:22;27.10;;;11.75;;
31676;SDS011;18385;51.572;6.578;2022-12-08T03:25:52;28.40;;;12.55;;
31676;SDS011;18385;51.572;6.578;2022-12-08T03:28:23;32.50;;;13.57;;
31676;SDS011;18385;51.572;6.578;2022-12-08T03:30:50;24.73;;;12.10;;
31676;SDS011;18385;51.572;6.578;2022-12-08T03:33:24;27.35;;;12.10;;
31676;SDS011;18385;51.572;6.578;2022-12-08T03:35:54;33.17;;;14.00;;
31676;SDS011;18385;51.572;6.578;2022-12-08T03:38:21;27.95;;;12.40;;
31676;SDS011;18385;51.572;6.578;2022-12-08T03:40:46;26.80;;;12.85;;
31676;SDS011;18385;51.572;6.578;2022-12-08T03:43:32;31.52;;;12.45;;
31676;SDS011;18385;51.572;6.578;2022-12-08T03:45:57;33.28;;;14.02;;
31676;SDS011;18385;51.572;6.578;2022-12-08T03:48:23;27.35;;;12.88;;
31676;SDS011;18385;51.572;6.578;2022-12-08T03:50:48;28.67;;;13.90;;
31676;SDS011;18385;51.572;6.578;2022-12-08T03:53:14;30.73;;;13.43;;
31676;SDS011;18385;51.572;6.578;2022-12-08T03:55:40;34.00;;;13.32;;
31676;SDS011;18385;51.572;6.578;2022-12-08T03:58:05;29.10;;;13.02;;
31676;SDS011;18385;51.572;6.578;2022-12-08T04:00:31;30.85;;;13.27;;
31676;SDS011;18385;51.572;6.578;2022-12-08T04:02:57;29.95;;;12.40;;
31676;SDS011;18385;51.572;6.578;2022-12-08T04:05:22;30.38;;;13.93;;
31676;SDS011;18385;51.572;6.578;2022-12-08T04:07:48;26.88;;;12.45;;
31676;SDS011;18385;51.572;6.578;2022-12-08T04:10:14;31.00;;;13.95;;
31676;SDS011;18385;51.572;6.578;2022-12-08T04:12:39;26.25;;;12.88;;
31676;SDS011;18385;51.572;6.578;2022-12-08T04:15:05;26.20;;;12.18;;
31676;SDS011;18385;51.572;6.578;2022-12-08T04:17:31;30.85;;;13.77;;
31676;SDS011;18385;51.572;6.578;2022-12-08T04:19:57;29.25;;;13.30;;
31676;SDS011;18385;51.572;6.578;2022-12-08T04:22:22;32.67;;;13.90;;
31676;SDS011;18385;51.572;6.578;2022-12-08T04:24:48;29.40;;;13.23;;
31676;SDS011;18385;51.572;6.578;2022-12-08T04:27:13;27.10;;;11.95;;
31676;SDS011;18385;51.572;6.578;2022-12-08T04:29:39;28.88;;;13.45;;
31676;SDS011;18385;51.572;6.578;2022-12-08T04:32:05;29.20;;;12.85;;
31676;SDS011;18385;51.572;6.578;2022-12-08T04:34:30;27.15;;;12.15;;
31676;SDS011;18385;51.572;6.578;2022-12-08T04:36:56;29.63;;;13.65;;
31676;SDS011;18385;51.572;6.578;2022-12-08T04:39:21;26.83;;;12.05;;
31676;SDS011;18385;51.572;6.578;2022-12-08T04:41:47;24.92;;;11.45;;
31676;SDS011;18385;51.572;6.578;2022-12-08T04:44:13;27.23;;;12.68;;
31676;SDS011;18385;51.572;6.578;2022-12-08T04:46:38;21.75;;;10.52;;
31676;SDS011;18385;51.572;6.578;2022-12-08T04:49:04;26.52;;;12.35;;
31676;SDS011;18385;51.572;6.578;2022-12-08T04:51:29;23.75;;;11.02;;
31676;SDS011;18385;51.572;6.578;2022-12-08T04:53:55;24.70;;;10.77;;
31676;SDS011;18385;51.572;6.578;2022-12-08T04:56:21;21.80;;;10.88;;
31676;SDS011;18385;51.572;6.578;2022-12-08T04:58:46;23.23;;;10.63;;
31676;SDS011;18385;51.572;6.578;2022-12-08T05:01:12;17.50;;;8.98;;
31676;SDS011;18385;51.572;6.578;2022-12-08T05:03:38;23.35;;;10.25;;
31676;SDS011;18385;51.572;6.578;2022-12-08T05:06:04;21.70;;;9.35;;
31676;SDS011;18385;51.572;6.578;2022-12-08T05:08:30;17.15;;;9.10;;
31676;SDS011;18385;51.572;6.578;2022-12-08T05:11:06;18.35;;;9.13;;
31676;SDS011;18385;51.572;6.578;2022-12-08T05:13:33;16.05;;;8.30;;
31676;SDS011;18385;51.572;6.578;2022-12-08T05:16:06;11.40;;;5.50;;
31676;SDS011;18385;51.572;6.578;2022-12-08T05:18:33;16.42;;;8.18;;
31676;SDS011;18385;51.572;6.578;2022-12-08T05:20:59;15.68;;;7.53;;
31676;SDS011;18385;51.572;6.578;2022-12-08T05:23:26;14.20;;;6.85;;
31676;SDS011;18385;51.572;6.578;2022-12-08T05:25:51;12.68;;;6.50;;
31676;SDS011;18385;51.572;6.578;2022-12-08T05:28:17;12.48;;;6.32;;
31676;SDS011;18385;51.572;6.578;2022-12-08T05:30:43;9.40;;;5.43;;
31676;SDS011;18385;51.572;6.578;2022-12-08T05:33:09;10.70;;;5.38;;
31676;SDS011;18385;51.572;6.578;2022-12-08T05:35:35;10.63;;;5.25;;
31676;SDS011;18385;51.572;6.578;2022-12-08T05:38:01;13.65;;;6.22;;
31676;SDS011;18385;51.572;6.578;2022-12-08T05:40:26;16.65;;;6.68;;
31676;SDS011;18385;51.572;6.578;2022-12-08T05:42:52;12.95;;;6.43;;
31676;SDS011;18385;51.572;6.578;2022-12-08T05:45:18;12.90;;;7.07;;
31676;SDS011;18385;51.572;6.578;2022-12-08T05:47:43;13.65;;;7.03;;
31676;SDS011;18385;51.572;6.578;2022-12-08T05:50:09;16.13;;;8.10;;
31676;SDS011;18385;51.572;6.578;2022-12-08T05:52:35;16.35;;;7.18;;
31676;SDS011;18385;51.572;6.578;2022-12-08T05:55:01;14.02;;;7.40;;
31676;SDS011;18385;51.572;6.578;2022-12-08T05:57:26;14.90;;;7.00;;
31676;SDS011;18385;51.572;6.578;2022-12-08T05:59:52;15.90;;;8.05;;
31676;SDS011;18385;51.572;6.578;2022-12-08T06:02:18;14.10;;;7.28;;
31676;SDS011;18385;51.572;6.578;2022-12-08T06:04:43;14.43;;;7.65;;
31676;SDS011;18385;51.572;6.578;2022-12-08T06:07:09;15.68;;;7.57;;
31676;SDS011;18385;51.572;6.578;2022-12-08T06:09:34;13.10;;;6.93;;
31676;SDS011;18385;51.572;6.578;2022-12-08T06:12:00;13.23;;;6.57;;
31676;SDS011;18385;51.572;6.578;2022-12-08T06:14:26;12.32;;;6.57;;
31676;SDS011;18385;51.572;6.578;2022-12-08T06:16:52;14.10;;;6.63;;
31676;SDS011;18385;51.572;6.578;2022-12-08T06:19:17;14.75;;;6.68;;
31676;SDS011;18385;51.572;6.578;2022-12-08T06:21:43;14.23;;;7.63;;
31676;SDS011;18385;51.572;6.578;2022-12-08T06:24:10;14.25;;;6.60;;
31676;SDS011;18385;51.572;6.578;2022-12-08T06:26:36;15.90;;;6.80;;
31676;SDS011;18385;51.572;6.578;2022-12-08T06:29:01;13.60;;;7.18;;
31676;SDS011;18385;51.572;6.578;2022-12-08T06:31:29;14.27;;;7.20;;
31676;SDS011;18385;51.572;6.578;2022-12-08T06:33:54;15.30;;;7.38;;
31676;SDS011;18385;51.572;6.578;2022-12-08T06:36:22;14.50;;;6.85;;
31676;SDS011;18385;51.572;6.578;2022-12-08T06:38:49;15.68;;;7.57;;
31676;SDS011;18385;51.572;6.578;2022-12-08T06:41:15;14.30;;;6.65;;
31676;SDS011;18385;51.572;6.578;2022-12-08T06:43:41;12.68;;;6.47;;
31676;SDS011;18385;51.572;6.578;2022-12-08T06:46:07;14.23;;;6.75;;
31676;SDS011;18385;51.572;6.578;2022-12-08T06:48:35;13.73;;;6.53;;
31676;SDS011;18385;51.572;6.578;2022-12-08T06:51:05;15.50;;;7.20;;
31676;SDS011;18385;51.572;6.578;2022-12-08T06:53:32;14.05;;;7.30;;
31676;SDS011;18385;51.572;6.578;2022-12-08T06:55:57;15.93;;;6.97;;
31676;SDS011;18385;51.572;6.578;2022-12-08T06:58:23;16.48;;;7.55;;
31676;SDS011;18385;51.572;6.578;2022-12-08T07:00:48;18.17;;;7.85;;
31676;SDS011;18385;51.572;6.578;2022-12-08T07:03:14;20.20;;;7.10;;
31676;SDS011;18385;51.572;6.578;2022-12-08T07:05:40;17.00;;;7.32;;
31676;SDS011;18385;51.572;6.578;2022-12-08T07:08:06;18.08;;;7.88;;
31676;SDS011;18385;51.572;6.578;2022-12-08T07:10:33;17.63;;;6.85;;
31676;SDS011;18385;51.572;6.578;2022-12-08T07:12:59;16.42;;;7.22;;
31676;SDS011;18385;51.572;6.578;2022-12-08T07:15:25;17.30;;;8.20;;
31676;SDS011;18385;51.572;6.578;2022-12-08T07:17:51;17.17;;;7.88;;
31676;SDS011;18385;51.572;6.578;2022-12-08T07:20:17;12.73;;;5.85;;
31676;SDS011;18385;51.572;6.578;2022-12-08T07:22:47;13.20;;;6.78;;
31676;SDS011;18385;51.572;6.578;2022-12-08T07:25:15;14.75;;;6.05;;
31676;SDS011;18385;51.572;6.578;2022-12-08T07:27:42;11.23;;;5.25;;
31676;SDS011;18385;51.572;6.578;2022-12-08T07:30:07;13.05;;;5.45;;
31676;SDS011;18385;51.572;6.578;2022-12-08T07:32:33;9.23;;;4.75;;
31676;SDS011;18385;51.572;6.578;2022-12-08T07:35:00;9.45;;;4.13;;
31676;SDS011;18385;51.572;6.578;2022-12-08T07:37:26;9.07;;;4.18;;
31676;SDS011;18385;51.572;6.578;2022-12-08T07:39:51;8.40;;;4.57;;
31676;SDS011;18385;51.572;6.578;2022-12-08T07:42:17;9.90;;;4.63;;
31676;SDS011;18385;51.572;6.578;2022-12-08T07:44:45;10.35;;;4.88;;
31676;SDS011;18385;51.572;6.578;2022-12-08T07:47:10;9.27;;;4.05;;
31676;SDS011;18385;51.572;6.578;2022-12-08T07:49:36;8.43;;;3.95;;
31676;SDS011;18385;51.572;6.578;2022-12-08T07:52:03;12.27;;;4.20;;
31676;SDS011;18385;51.572;6.578;2022-12-08T07:54:28;9.25;;;4.22;;
31676;SDS011;18385;51.572;6.578;2022-12-08T07:56:56;9.43;;;4.70;;
31676;SDS011;18385;51.572;6.578;2022-12-08T07:59:22;9.63;;;4.80;;
31676;SDS011;18385;51.572;6.578;2022-12-08T08:01:48;10.80;;;4.75;;
31676;SDS011;18385;51.572;6.578;2022-12-08T08:04:15;13.68;;;5.05;;
31676;SDS011;18385;51.572;6.578;2022-12-08T08:06:42;9.30;;;4.53;;
31676;SDS011;18385;51.572;6.578;2022-12-08T08:09:07;10.45;;;5.20;;
31676;SDS011;18385;51.572;6.578;2022-12-08T08:11:34;10.23;;;5.60;;
31676;SDS011;18385;51.572;6.578;2022-12-08T08:14:00;9.23;;;4.70;;
31676;SDS011;18385;51.572;6.578;2022-12-08T08:16:26;9.32;;;4.78;;
31676;SDS011;18385;51.572;6.578;2022-12-08T08:18:53;10.48;;;4.78;;
31676;SDS011;18385;51.572;6.578;2022-12-08T08:21:19;9.95;;;5.38;;
31676;SDS011;18385;51.572;6.578;2022-12-08T08:23:45;8.57;;;4.55;;
31676;SDS011;18385;51.572;6.578;2022-12-08T08:26:11;8.93;;;4.43;;
31676;SDS011;18385;51.572;6.578;2022-12-08T08:28:37;9.43;;;4.07;;
31676;SDS011;18385;51.572;6.578;2022-12-08T08:31:02;5.18;;;3.03;;
31676;SDS011;18385;51.572;6.578;2022-12-08T08:33:29;8.52;;;3.22;;
31676;SDS011;18385;51.572;6.578;2022-12-08T08:35:54;8.88;;;3.22;;
31676;SDS011;18385;51.572;6.578;2022-12-08T08:38:20;8.70;;;4.07;;
31676;SDS011;18385;51.572;6.578;2022-12-08T08:40:46;7.88;;;3.58;;
31676;SDS011;18385;51.572;6.578;2022-12-08T08:43:11;7.10;;;3.75;;
31676;SDS011;18385;51.572;6.578;2022-12-08T08:45:59;9.38;;;3.95;;
31676;SDS011;18385;51.572;6.578;2022-12-08T08:48:26;7.75;;;3.45;;
31676;SDS011;18385;51.572;6.578;2022-12-08T08:50:52;7.25;;;3.40;;
31676;SDS011;18385;51.572;6.578;2022-12-08T08:53:19;6.75;;;3.70;;
31676;SDS011;18385;51.572;6.578;2022-12-08T08:55:45;6.65;;;3.38;;
31676;SDS011;18385;51.572;6.578;2022-12-08T08:58:10;6.72;;;3.67;;
31676;SDS011;18385;51.572;6.578;2022-12-08T09:00:36;7.97;;;3.85;;
31676;SDS011;18385;51.572;6.578;2022-12-08T09:03:01;7.97;;;3.47;;
31676;SDS011;18385;51.572;6.578;2022-12-08T09:05:27;8.18;;;4.22;;
31676;SDS011;18385;51.572;6.578;2022-12-08T09:07:53;10.93;;;4.80;;
31676;SDS011;18385;51.572;6.578;2022-12-08T09:10:19;10.98;;;5.30;;
31676;SDS011;18385;51.572;6.578;2022-12-08T09:12:44;9.98;;;5.30;;
31676;SDS011;18385;51.572;6.578;2022-12-08T09:15:10;11.70;;;5.75;;
31676;SDS011;18385;51.572;6.578;2022-12-08T09:17:36;9.95;;;4.90;;
31676;SDS011;18385;51.572;6.578;2022-12-08T09:20:02;11.85;;;6.05;;
31676;SDS011;18385;51.572;6.578;2022-12-08T09:22:29;11.10;;;5.07;;
31676;SDS011;18385;51.572;6.578;2022-12-08T09:24:55;10.77;;;5.53;;
31676;SDS011;18385;51.572;6.578;2022-12-08T09:27:20;12.95;;;6.88;;
31676;SDS011;18385;51.572;6.578;2022-12-08T09:29:46;13.63;;;5.82;;
31676;SDS011;18385;51.572;6.578;2022-12-08T09:32:12;12.95;;;6.20;;
31676;SDS011;18385;51.572;6.578;2022-12-08T09:34:37;11.00;;;5.95;;
31676;SDS011;18385;51.572;6.578;2022-12-08T09:37:03;11.23;;;5.72;;
31676;SDS011;18385;51.572;6.578;2022-12-08T09:39:28;9.90;;;5.53;;
31676;SDS011;18385;51.572;6.578;2022-12-08T09:41:58;13.60;;;6.88;;
31676;SDS011;18385;51.572;6.578;2022-12-08T09:49:55;10.18;;;5.57;;
31676;SDS011;18385;51.572;6.578;2022-12-08T09:53:02;14.45;;;6.47;;
31676;SDS011;18385;51.572;6.578;2022-12-08T09:55:45;13.52;;;6.72;;
31676;SDS011;18385;51.572;6.578;2022-12-08T10:01:41;14.98;;;7.78;;
31676;SDS011;18385;51.572;6.578;2022-12-08T10:17:45;12.05;;;6.32;;
31676;SDS011;18385;51.572;6.578;2022-12-08T10:20:16;14.13;;;6.78;;
31676;SDS011;18385;51.572;6.578;2022-12-08T10:22:47;13.07;;;6.93;;
31676;SDS011;18385;51.572;6.578;2022-12-08T10:25:19;12.15;;;6.75;;
31676;SDS011;18385;51.572;6.578;2022-12-08T10:27:50;13.00;;;7.00;;
31676;SDS011;18385;51.572;6.578;2022-12-08T10:30:18;10.80;;;6.15;;
31676;SDS011;18385;51.572;6.578;2022-12-08T10:32:50;13.02;;;7.05;;
31676;SDS011;18385;51.572;6.578;2022-12-08T10:35:18;16.33;;;8.65;;
31676;SDS011;18385;51.572;6.578;2022-12-08T10:37:58;15.77;;;7.30;;
31676;SDS011;18385;51.572;6.578;2022-12-08T10:40:26;14.80;;;8.18;;
31676;SDS011;18385;51.572;6.578;2022-12-08T10:42:54;14.10;;;7.45;;
31676;SDS011;18385;51.572;6.578;2022-12-08T10:45:28;14.00;;;7.10;;
31676;SDS011;18385;51.572;6.578;2022-12-08T10:55:41;16.60;;;7.75;;
31676;SDS011;18385;51.572;6.578;2022-12-08T10:58:22;15.23;;;7.85;;
31676;SDS011;18385;51.572;6.578;2022-12-08T11:00:49;14.65;;;7.00;;
31676;SDS011;18385;51.572;6.578;2022-12-08T11:03:21;13.50;;;7.38;;
31676;SDS011;18385;51.572;6.578;2022-12-08T11:05:55;16.05;;;8.32;;
31676;SDS011;18385;51.572;6.578;2022-12-08T11:08:23;18.52;;;7.63;;
31676;SDS011;18385;51.572;6.578;2022-12-08T11:10:50;16.35;;;8.10;;
31676;SDS011;18385;51.572;6.578;2022-12-08T11:13:23;14.98;;;7.78;;
31676;SDS011;18385;51.572;6.578;2022-12-08T11:15:51;15.55;;;7.68;;
31676;SDS011;18385;51.572;6.578;2022-12-08T11:19:03;11.20;;;6.30;;
31676;SDS011;18385;51.572;6.578;2022-12-08T11:21:15;12.45;;;6.75;;
31676;SDS011;18385;51.572;6.578;2022-12-08T11:23:46;10.68;;;5.78;;
31676;SDS011;18385;51.572;6.578;2022-12-08T11:26:25;12.38;;;5.93;;
31676;SDS011;18385;51.572;6.578;2022-12-08T11:28:57;7.75;;;4.43;;
31676;SDS011;18385;51.572;6.578;2022-12-08T11:33:57;8.85;;;4.47;;
31676;SDS011;18385;51.572;6.578;2022-12-08T11:36:25;7.47;;;3.20;;
31676;SDS011;18385;51.572;6.578;2022-12-08T11:38:58;5.18;;;2.78;;
31676;SDS011;18385;51.572;6.578;2022-12-08T11:41:30;4.07;;;2.50;;
31676;SDS011;18385;51.572;6.578;2022-12-08T11:44:04;6.55;;;2.80;;
31676;SDS011;18385;51.572;6.578;2022-12-08T11:46:42;6.10;;;3.40;;
31676;SDS011;18385;51.572;6.578;2022-12-08T11:49:15;5.18;;;2.75;;
31676;SDS011;18385;51.572;6.578;2022-12-08T11:51:47;5.32;;;2.50;;
31676;SDS011;18385;51.572;6.578;2022-12-08T11:54:37;4.35;;;2.70;;
31676;SDS011;18385;51.572;6.578;2022-12-08T11:57:23;7.78;;;2.83;;
31676;SDS011;18385;51.572;6.578;2022-12-08T11:59:52;6.15;;;2.75;;
31676;SDS011;18385;51.572;6.578;2022-12-08T12:02:24;5.25;;;2.58;;
31676;SDS011;18385;51.572;6.578;2022-12-08T12:10:28;3.65;;;1.90;;
31676;SDS011;18385;51.572;6.578;2022-12-08T12:13:19;4.28;;;1.67;;
31676;SDS011;18385;51.572;6.578;2022-12-08T12:24:20;5.10;;;2.20;;
31676;SDS011;18385;51.572;6.578;2022-12-08T12:29:30;4.18;;;2.42;;
31676;SDS011;18385;51.572;6.578;2022-12-08T12:32:02;4.22;;;2.45;;
31676;SDS011;18385;51.572;6.578;2022-12-08T12:34:32;3.63;;;1.90;;
31676;SDS011;18385;51.572;6.578;2022-12-08T12:37:19;3.65;;;1.95;;
31676;SDS011;18385;51.572;6.578;2022-12-08T12:40:14;3.08;;;2.00;;
31676;SDS011;18385;51.572;6.578;2022-12-08T12:42:45;3.08;;;1.65;;
31676;SDS011;18385;51.572;6.578;2022-12-08T12:45:34;2.55;;;1.52;;
31676;SDS011;18385;51.572;6.578;2022-12-08T12:58:33;2.35;;;1.20;;
31676;SDS011;18385;51.572;6.578;2022-12-08T13:03:34;2.05;;;1.10;;
31676;SDS011;18385;51.572;6.578;2022-12-08T13:06:06;2.38;;;1.40;;
31676;SDS011;18385;51.572;6.578;2022-12-08T13:08:37;3.10;;;1.50;;
31676;SDS011;18385;51.572;6.578;2022-12-08T13:11:05;3.50;;;2.00;;
31676;SDS011;18385;51.572;6.578;2022-12-08T13:13:34;5.03;;;2.35;;
31676;SDS011;18385;51.572;6.578;2022-12-08T13:16:19;4.43;;;2.83;;
31676;SDS011;18385;51.572;6.578;2022-12-08T13:18:49;6.13;;;3.20;;
31676;SDS011;18385;51.572;6.578;2022-12-08T13:21:24;8.55;;;4.90;;
31676;SDS011;18385;51.572;6.578;2022-12-08T13:26:48;10.13;;;5.30;;
31676;SDS011;18385;51.572;6.578;2022-12-08T13:31:54;10.45;;;5.65;;
31676;SDS011;18385;51.572;6.578;2022-12-08T13:36:59;9.73;;;5.25;;
31676;SDS011;18385;51.572;6.578;2022-12-08T13:50:42;10.82;;;6.07;;
31676;SDS011;18385;51.572;6.578;2022-12-08T13:53:21;11.02;;;6.00;;
31676;SDS011;18385;51.572;6.578;2022-12-08T13:55:56;10.32;;;6.18;;
31676;SDS011;18385;51.572;6.578;2022-12-08T13:58:27;13.10;;;7.30;;
31676;SDS011;18385;51.572;6.578;2022-12-08T14:06:17;13.43;;;7.38;;
31676;SDS011;18385;51.572;6.578;2022-12-08T14:09:09;12.40;;;6.97;;
31676;SDS011;18385;51.572;6.578;2022-12-08T14:11:39;11.82;;;6.97;;
31676;SDS011;18385;51.572;6.578;2022-12-08T14:14:08;13.18;;;7.10;;
31676;SDS011;18385;51.572;6.578;2022-12-08T14:16:40;15.82;;;6.43;;
31676;SDS011;18385;51.572;6.578;2022-12-08T14:19:18;12.38;;;7.05;;
31676;SDS011;18385;51.572;6.578;2022-12-08T14:21:55;12.65;;;6.40;;
31676;SDS011;18385;51.572;6.578;2022-12-08T14:24:24;18.45;;;7.85;;
31676;SDS011;18385;51.572;6.578;2022-12-08T14:26:51;19.30;;;9.30;;
31676;SDS011;18385;51.572;6.578;2022-12-08T14:31:57;19.42;;;9.52;;
31676;SDS011;18385;51.572;6.578;2022-12-08T14:34:22;15.15;;;7.53;;
31676;SDS011;18385;51.572;6.578;2022-12-08T14:36:48;18.58;;;9.52;;
31676;SDS011;18385;51.572;6.578;2022-12-08T14:39:14;13.38;;;6.47;;
31676;SDS011;18385;51.572;6.578;2022-12-08T14:41:46;12.70;;;6.20;;
31676;SDS011;18385;51.572;6.578;2022-12-08T14:44:25;11.02;;;6.15;;
31676;SDS011;18385;51.572;6.578;2022-12-08T14:47:07;13.45;;;6.28;;
31676;SDS011;18385;51.572;6.578;2022-12-08T14:49:36;12.50;;;6.20;;
31676;SDS011;18385;51.572;6.578;2022-12-08T14:52:07;12.73;;;6.43;;
31676;SDS011;18385;51.572;6.578;2022-12-08T14:54:35;11.25;;;6.63;;
31676;SDS011;18385;51.572;6.578;2022-12-08T14:57:02;12.32;;;6.50;;
31676;SDS011;18385;51.572;6.578;2022-12-08T14:59:30;14.60;;;7.22;;
31676;SDS011;18385;51.572;6.578;2022-12-08T15:04:41;10.55;;;5.88;;
31676;SDS011;18385;51.572;6.578;2022-12-08T15:07:13;14.90;;;7.13;;
31676;SDS011;18385;51.572;6.578;2022-12-08T15:09:43;11.52;;;6.32;;
31676;SDS011;18385;51.572;6.578;2022-12-08T15:14:37;13.10;;;6.95;;
31676;SDS011;18385;51.572;6.578;2022-12-08T15:19:54;13.60;;;7.28;;
31676;SDS011;18385;51.572;6.578;2022-12-08T15:22:21;13.00;;;7.50;;
31676;SDS011;18385;51.572;6.578;2022-12-08T15:24:47;15.43;;;7.60;;
31676;SDS011;18385;51.572;6.578;2022-12-08T15:27:16;16.23;;;8.10;;
31676;SDS011;18385;51.572;6.578;2022-12-08T15:29:43;16.80;;;8.07;;
31676;SDS011;18385;51.572;6.578;2022-12-08T15:32:10;14.15;;;7.72;;
31676;SDS011;18385;51.572;6.578;2022-12-08T15:34:39;16.33;;;7.85;;
31676;SDS011;18385;51.572;6.578;2022-12-08T15:37:05;17.17;;;7.90;;
31676;SDS011;18385;51.572;6.578;2022-12-08T15:39:48;16.20;;;8.13;;
31676;SDS011;18385;51.572;6.578;2022-12-08T15:42:14;16.63;;;8.32;;
31676;SDS011;18385;51.572;6.578;2022-12-08T15:44:40;16.50;;;8.15;;
31676;SDS011;18385;51.572;6.578;2022-12-08T15:47:16;15.90;;;8.02;;
31676;SDS011;18385;51.572;6.578;2022-12-08T15:49:44;16.60;;;8.63;;
31676;SDS011;18385;51.572;6.578;2022-12-08T15:52:12;16.00;;;8.05;;
31676;SDS011;18385;51.572;6.578;2022-12-08T15:54:43;17.70;;;8.38;;
31676;SDS011;18385;51.572;6.578;2022-12-08T15:57:22;20.38;;;8.57;;
31676;SDS011;18385;51.572;6.578;2022-12-08T16:02:14;15.98;;;9.07;;
31676;SDS011;18385;51.572;6.578;2022-12-08T16:04:41;19.75;;;9.35;;
31676;SDS011;18385;51.572;6.578;2022-12-08T16:07:11;20.23;;;9.68;;
31676;SDS011;18385;51.572;6.578;2022-12-08T16:09:47;17.30;;;9.32;;
31676;SDS011;18385;51.572;6.578;2022-12-08T16:12:14;22.98;;;10.30;;
31676;SDS011;18385;51.572;6.578;2022-12-08T16:14:58;22.45;;;10.32;;
31676;SDS011;18385;51.572;6.578;2022-12-08T16:17:24;19.77;;;9.90;;
31676;SDS011;18385;51.572;6.578;2022-12-08T16:19:50;20.88;;;9.85;;
31676;SDS011;18385;51.572;6.578;2022-12-08T16:22:17;19.02;;;10.82;;
31676;SDS011;18385;51.572;6.578;2022-12-08T16:24:44;17.58;;;10.30;;
31676;SDS011;18385;51.572;6.578;2022-12-08T16:27:17;21.42;;;11.10;;
31676;SDS011;18385;51.572;6.578;2022-12-08T16:29:55;22.70;;;10.48;;
31676;SDS011;18385;51.572;6.578;2022-12-08T16:32:21;20.50;;;10.40;;
31676;SDS011;18385;51.572;6.578;2022-12-08T16:34:48;20.80;;;10.65;;
31676;SDS011;18385;51.572;6.578;2022-12-08T16:37:18;19.02;;;10.32;;
31676;SDS011;18385;51.572;6.578;2022-12-08T16:39:47;24.95;;;10.85;;
31676;SDS011;18385;51.572;6.578;2022-12-08T16:42:17;21.77;;;10.57;;
31676;SDS011;18385;51.572;6.578;2022-12-08T16:45:02;18.63;;;10.75;;
31676;SDS011;18385;51.572;6.578;2022-12-08T16:47:30;27.08;;;10.65;;
31676;SDS011;18385;51.572;6.578;2022-12-08T16:49:56;22.88;;;10.32;;
31676;SDS011;18385;51.572;6.578;2022-12-08T16:52:22;18.55;;;10.65;;